Terminal Aerodrome Forecast
Issued by NWS

Home | Current Version | Previous Version | Text Only | Print | Product List | Glossary On
Versions: 1 2 3 4 5 6 7 8 9 10 11 12 13 14
000
FTUS45 KBYZ 232330
TAFLVM
TAF
KLVM 232330Z 2400/2424 VRB06KT P6SM FEW080
     FM240100 08011KT P6SM FEW080
     FM241000 33005KT P6SM FEW100
     FM242000 08009KT P6SM FEW080 SCT120=

USA.gov is the U.S. government's official web portal to all federal, state and local government web resources and services.